BOW weather

Bartow Municipal Airport
Bartow, Florida, United States

Public forecast

Using degrees Fahrenheit for public forecast. Weather courtesy of forecast.io.

METAR (pilot weather report)

Retrieved 2019/05/21 01:15 UTC (2 hours ago):

KBOW 210115Z AUTO 10006KT 10SM CLR 27/20 A2996 RMK AO2

TAF (pilot weather forecast)

Forecast is more than 12 hours old.

Closest forecast is Lakeland Linder International Airport, 12.8 nm (23.6 km) WNW. Retrieved 2019/05/20 00:40 UTC (1 day ago):

TAF KLAL 202337Z 2100/2124 11003KT P6SM FEW060 FM211400 15006KT P6SM FEW040 AMD NOT SKED 2103/2112